Time;durP1;ratioP1;P1;durP2;ratioP2;P2;SDS_P1;SDS_P2;PMS_P1;PMS_P2;Temp;Humidity;BMP_temperature;BMP_pressure;BME280_temperature;BME280_humidity;BME280_pressure;Samples;Min_cycle;Max_cycle;Signal;HPM_P1;HPM_P2
2022/08/15 00:01:44;;;;;;;1.20;0.20;;;31.70;41.20;;;;;;5080349;28;20076;-59
2022/08/15 00:04:12;;;;;;;1.00;0.30;;;31.70;41.20;;;;;;5077293;28;20508;-58
2022/08/15 00:06:41;;;;;;;0.50;0.20;;;31.70;41.20;;;;;;5083769;28;20036;-59
2022/08/15 00:09:14;;;;;;;2.53;0.55;;;31.70;41.20;;;;;;5070908;28;20540;-57
2022/08/15 00:11:43;;;;;;;0.73;0.35;;;31.70;41.30;;;;;;5067923;28;20067;-59
2022/08/15 00:14:16;;;;;;;0.50;0.40;;;31.70;41.30;;;;;;5086678;28;20127;-59
2022/08/15 00:16:44;;;;;;;1.27;0.50;;;31.70;41.30;;;;;;5087054;28;20081;-59
2022/08/15 00:19:15;;;;;;;0.63;0.20;;;31.70;41.30;;;;;;5086865;28;20059;-59
2022/08/15 00:21:46;;;;;;;0.40;0.10;;;31.70;41.40;;;;;;5086894;28;20046;-59
2022/08/15 00:24:15;;;;;;;3.80;0.40;;;31.70;41.40;;;;;;5087110;28;20497;-59
2022/08/15 00:26:43;;;;;;;0.57;0.57;;;31.70;41.40;;;;;;5086755;28;20109;-59
2022/08/15 00:29:11;;;;;;;1.25;0.35;;;31.70;41.40;;;;;;5081208;28;20455;-58
2022/08/15 00:31:40;;;;;;;1.10;0.40;;;31.70;41.40;;;;;;5086254;28;20098;-59
2022/08/15 00:34:07;;;;;;;0.80;0.40;;;31.70;41.40;;;;;;5086993;28;20121;-59
2022/08/15 00:36:36;;;;;;;0.57;0.38;;;31.70;41.50;;;;;;5086269;28;20424;-58
2022/08/15 00:39:06;;;;;;;1.13;0.50;;;31.70;41.40;;;;;;5086596;28;20044;-58
2022/08/15 00:41:42;;;;;;;1.10;0.35;;;31.70;41.40;;;;;;5051247;28;20040;-57
2022/08/15 00:44:14;;;;;;;0.65;0.57;;;31.70;42.00;;;;;;5086155;28;20657;-58
2022/08/15 00:46:45;;;;;;;1.33;0.38;;;31.70;41.40;;;;;;5072886;28;20170;-58
2022/08/15 00:49:13;;;;;;;1.58;0.20;;;31.70;41.40;;;;;;5085971;28;20048;-59
2022/08/15 00:51:46;;;;;;;0.32;0.30;;;31.60;41.30;;;;;;5066093;28;20051;-59
2022/08/15 00:54:20;;;;;;;0.50;0.20;;;31.60;41.40;;;;;;5080296;28;20484;-58
2022/08/15 00:56:51;;;;;;;0.57;0.40;;;31.60;41.40;;;;;;5082871;28;20093;-57
2022/08/15 00:59:24;;;;;;;0.38;0.38;;;31.60;41.40;;;;;;5052002;28;20056;-58
2022/08/15 01:01:54;;;;;;;0.88;0.20;;;31.60;41.30;;;;;;5072116;28;20043;-59
2022/08/15 01:04:21;;;;;;;0.52;0.32;;;31.60;41.30;;;;;;5073439;28;20496;-59
2022/08/15 01:06:50;;;;;;;1.00;0.45;;;31.60;41.30;;;;;;5070140;28;20052;-59
2022/08/15 01:09:20;;;;;;;0.65;0.40;;;31.60;41.30;;;;;;5089994;28;20043;-58
2022/08/15 01:11:53;;;;;;;0.82;0.43;;;31.60;41.30;;;;;;5081208;28;20048;-58
2022/08/15 01:14:22;;;;;;;2.15;0.65;;;31.60;41.40;;;;;;5090658;28;20066;-58
2022/08/15 01:16:50;;;;;;;0.50;0.40;;;31.60;41.40;;;;;;5090146;28;20044;-59
2022/08/15 01:19:23;;;;;;;0.80;0.60;;;31.60;41.40;;;;;;5072000;28;20059;-60
2022/08/15 01:22:18;;;;;;;0.43;0.43;;;31.60;41.40;;;;;;5036689;28;20060;-59
2022/08/15 01:24:55;;;;;;;2.70;0.50;;;31.60;41.30;;;;;;5073418;28;20519;-58
2022/08/15 01:27:26;;;;;;;1.30;0.57;;;31.60;41.40;;;;;;5071645;28;20119;-57
2022/08/15 01:29:54;;;;;;;0.47;0.32;;;31.60;41.50;;;;;;5061211;28;20048;-58
2022/08/15 01:32:22;;;;;;;2.83;0.32;;;31.60;41.40;;;;;;5057125;28;20044;-58
2022/08/15 01:34:50;;;;;;;0.95;0.47;;;31.50;41.30;;;;;;5071825;28;20044;-57
2022/08/15 01:37:19;;;;;;;0.60;0.40;;;31.50;41.40;;;;;;5055475;28;20040;-57
2022/08/15 01:39:53;;;;;;;1.50;0.20;;;31.50;41.40;;;;;;5087765;28;20059;-57
2022/08/15 01:42:25;;;;;;;0.55;0.35;;;31.60;41.50;;;;;;5088983;28;20603;-58
2022/08/15 01:44:56;;;;;;;1.05;0.20;;;31.50;41.40;;;;;;5088256;28;20043;-57
2022/08/15 01:47:28;;;;;;;1.92;0.55;;;31.50;41.40;;;;;;5076856;28;20568;-57
2022/08/15 01:50:00;;;;;;;0.75;0.30;;;31.50;41.40;;;;;;5052709;28;20029;-57
2022/08/15 01:52:35;;;;;;;0.40;0.40;;;31.50;41.40;;;;;;5072021;28;20121;-58
2022/08/15 01:55:07;;;;;;;0.55;0.55;;;31.50;41.40;;;;;;5052232;28;20048;-56
2022/08/15 01:57:36;;;;;;;3.78;0.38;;;31.50;41.40;;;;;;5074488;28;20036;-58
2022/08/15 02:00:07;;;;;;;1.30;0.60;;;31.50;41.40;;;;;;5077135;28;20059;-56
2022/08/15 02:02:41;;;;;;;0.73;0.50;;;31.50;41.40;;;;;;5080219;28;20044;-56
2022/08/15 02:05:09;;;;;;;0.22;0.20;;;31.50;41.40;;;;;;5085194;28;20040;-55
2022/08/15 02:07:37;;;;;;;0.55;0.55;;;31.50;41.40;;;;;;5089469;28;20499;-57
2022/08/15 02:10:08;;;;;;;0.73;0.70;;;31.50;41.40;;;;;;5070657;28;20040;-58
2022/08/15 02:12:40;;;;;;;1.27;1.25;;;31.50;41.40;;;;;;5070536;28;20428;-58
2022/08/15 02:15:13;;;;;;;1.75;0.38;;;31.50;41.40;;;;;;5071413;28;20083;-58
2022/08/15 02:17:41;;;;;;;1.50;0.52;;;31.50;41.40;;;;;;5084538;28;20948;-58
2022/08/15 02:20:10;;;;;;;0.60;0.35;;;31.40;41.30;;;;;;5072012;28;20052;-57
2022/08/15 02:22:37;;;;;;;1.08;0.57;;;31.50;41.40;;;;;;5077561;28;20052;-58
2022/08/15 02:25:08;;;;;;;0.77;0.60;;;31.40;41.30;;;;;;5062450;28;20044;-58
2022/08/15 02:27:37;;;;;;;1.17;0.50;;;31.40;41.30;;;;;;5065595;28;20166;-58
2022/08/15 02:30:08;;;;;;;0.93;0.47;;;31.40;42.00;;;;;;5088052;28;20127;-57
2022/08/15 02:32:39;;;;;;;1.15;0.50;;;31.40;41.40;;;;;;5082084;28;20474;-57
2022/08/15 02:35:08;;;;;;;2.17;0.65;;;31.40;42.00;;;;;;5071088;28;20043;-57
2022/08/15 02:37:35;;;;;;;1.60;0.28;;;31.40;41.40;;;;;;5088615;28;20056;-56
2022/08/15 02:40:08;;;;;;;0.38;0.38;;;31.40;41.40;;;;;;5070147;28;20044;-58
2022/08/15 02:42:36;;;;;;;0.63;0.35;;;31.40;41.40;;;;;;5057672;28;20060;-57
2022/08/15 02:45:05;;;;;;;1.85;0.30;;;31.40;41.40;;;;;;5067873;28;20039;-57
2022/08/15 02:47:34;;;;;;;0.73;0.73;;;31.40;41.40;;;;;;5075572;28;20129;-57
2022/08/15 02:50:02;;;;;;;0.95;0.77;;;31.40;41.40;;;;;;5070416;28;20048;-56
2022/08/15 02:52:32;;;;;;;1.38;0.60;;;31.30;41.30;;;;;;5050873;28;20036;-58
2022/08/15 02:55:00;;;;;;;0.20;0.20;;;31.40;41.40;;;;;;5080997;28;20048;-58
2022/08/15 02:57:31;;;;;;;0.30;0.30;;;31.40;41.40;;;;;;5070162;28;20040;-59
2022/08/15 02:59:59;;;;;;;0.28;0.20;;;31.40;41.40;;;;;;5069931;28;20051;-58
2022/08/15 03:02:32;;;;;;;1.55;0.85;;;31.40;41.40;;;;;;5064067;28;20040;-60
2022/08/15 03:05:02;;;;;;;1.02;0.47;;;31.30;41.40;;;;;;5087240;28;20040;-58
2022/08/15 03:07:37;;;;;;;1.35;0.50;;;31.30;41.40;;;;;;5069909;28;20127;-59
2022/08/15 03:10:07;;;;;;;1.20;0.50;;;31.30;41.40;;;;;;5060699;28;20050;-59
2022/08/15 03:12:53;;;;;;;0.75;0.70;;;31.30;41.40;;;;;;5072011;28;20045;-59
2022/08/15 03:15:24;;;;;;;0.98;0.38;;;31.40;41.40;;;;;;5087280;28;20155;-59
2022/08/15 03:17:51;;;;;;;0.50;0.50;;;31.30;41.40;;;;;;5069859;28;20046;-59
2022/08/15 03:20:21;;;;;;;0.85;0.77;;;31.30;41.40;;;;;;5034547;28;20057;-57
2022/08/15 03:22:50;;;;;;;0.68;0.45;;;31.30;41.50;;;;;;5069162;28;20040;-58
2022/08/15 03:25:25;;;;;;;1.45;0.40;;;31.30;41.40;;;;;;5069074;28;20047;-56
2022/08/15 03:27:56;;;;;;;2.30;0.43;;;31.30;41.40;;;;;;5087680;28;20192;-59
2022/08/15 03:30:23;;;;;;;1.55;0.43;;;31.30;41.40;;;;;;5057630;28;20040;-58
2022/08/15 03:32:56;;;;;;;2.15;0.57;;;31.30;41.50;;;;;;5050369;28;20045;-58
2022/08/15 03:35:29;;;;;;;1.20;0.60;;;31.30;41.40;;;;;;5049797;28;20714;-58
2022/08/15 03:37:59;;;;;;;1.15;0.65;;;31.30;41.50;;;;;;5051691;28;20072;-57
2022/08/15 03:40:28;;;;;;;0.70;0.70;;;31.30;41.50;;;;;;5069241;28;20193;-58
2022/08/15 03:42:59;;;;;;;1.15;0.20;;;31.30;41.50;;;;;;5060349;28;20044;-59
2022/08/15 03:45:28;;;;;;;1.85;0.68;;;31.30;41.50;;;;;;5060506;28;20048;-58
2022/08/15 03:47:55;;;;;;;1.02;0.43;;;31.30;41.40;;;;;;5046114;28;20109;-58
2022/08/15 03:50:24;;;;;;;2.13;0.88;;;31.20;41.40;;;;;;5060529;28;20051;-59
2022/08/15 03:52:53;;;;;;;0.65;0.65;;;31.30;41.40;;;;;;5056031;28;20515;-58
2022/08/15 03:55:24;;;;;;;0.40;0.35;;;31.20;41.40;;;;;;5050036;28;20587;-58
2022/08/15 03:57:53;;;;;;;0.98;0.82;;;31.20;41.40;;;;;;5066350;28;20040;-61
2022/08/15 04:00:25;;;;;;;0.90;0.50;;;31.20;41.40;;;;;;5053048;28;20059;-57
2022/08/15 04:03:05;;;;;;;0.60;0.57;;;31.20;41.40;;;;;;5064901;28;20132;-59
2022/08/15 04:05:32;;;;;;;1.75;0.30;;;31.20;41.40;;;;;;5067346;28;20043;-58
2022/08/15 04:07:59;;;;;;;6.82;0.65;;;31.20;41.40;;;;;;5048208;28;20541;-59
2022/08/15 04:10:26;;;;;;;0.65;0.50;;;31.20;41.40;;;;;;5068960;28;20063;-59
2022/08/15 04:12:54;;;;;;;0.70;0.32;;;31.20;41.40;;;;;;5056669;28;20045;-58
2022/08/15 04:15:23;;;;;;;1.08;0.50;;;31.20;41.40;;;;;;5059137;28;20077;-58
2022/08/15 04:17:51;;;;;;;0.82;0.65;;;31.20;41.50;;;;;;5054066;28;20040;-57
2022/08/15 04:20:19;;;;;;;0.65;0.65;;;31.10;41.40;;;;;;5062677;28;20048;-58
2022/08/15 04:22:49;;;;;;;0.70;0.40;;;31.10;41.40;;;;;;5059117;28;20114;-58
2022/08/15 04:25:20;;;;;;;1.92;0.32;;;31.10;41.40;;;;;;5064839;28;20075;-58
2022/08/15 04:27:51;;;;;;;1.85;0.40;;;31.10;41.40;;;;;;5066864;28;20116;-59
2022/08/15 04:30:19;;;;;;;0.70;0.68;;;31.10;41.40;;;;;;5049483;28;20045;-58
2022/08/15 04:32:49;;;;;;;1.08;0.73;;;31.10;41.40;;;;;;5066548;28;20174;-57
2022/08/15 04:35:16;;;;;;;0.35;0.30;;;31.10;41.40;;;;;;5066795;28;20531;-59
2022/08/15 04:37:43;;;;;;;0.30;0.20;;;31.10;41.40;;;;;;5066714;28;20041;-58
2022/08/15 04:40:14;;;;;;;1.13;0.77;;;31.10;41.40;;;;;;5069088;28;20075;-55
2022/08/15 04:42:50;;;;;;;1.40;0.47;;;31.10;41.50;;;;;;5061760;28;20272;-56
2022/08/15 04:45:18;;;;;;;0.75;0.30;;;31.10;41.40;;;;;;5055581;28;20040;-56
2022/08/15 04:47:46;;;;;;;0.40;0.30;;;31.10;41.40;;;;;;5053178;28;20098;-57
2022/08/15 04:50:14;;;;;;;0.85;0.85;;;31.10;41.40;;;;;;5058531;28;20518;-58
2022/08/15 04:52:48;;;;;;;0.40;0.40;;;31.10;41.50;;;;;;5070564;28;20131;-60
2022/08/15 04:55:16;;;;;;;1.85;1.27;;;31.10;41.50;;;;;;5074382;28;20051;-58
2022/08/15 04:57:43;;;;;;;0.63;0.30;;;31.10;41.40;;;;;;5064286;28;20081;-58
2022/08/15 05:00:13;;;;;;;0.60;0.32;;;31.10;41.40;;;;;;5054674;28;20076;-58
2022/08/15 05:03:03;;;;;;;1.13;0.47;;;31.10;41.40;;;;;;5059421;28;20052;-56
2022/08/15 05:05:35;;;;;;;1.15;0.68;;;31.10;41.40;;;;;;5068058;28;20045;-56
2022/08/15 05:08:03;;;;;;;0.52;0.52;;;31.10;41.60;;;;;;5052257;28;20053;-58
2022/08/15 05:10:34;;;;;;;0.35;0.35;;;31.10;41.50;;;;;;5054887;28;20081;-57
2022/08/15 05:13:12;;;;;;;1.38;0.57;;;31.00;41.40;;;;;;5067325;28;20044;-55
2022/08/15 05:15:40;;;;;;;0.73;0.43;;;31.10;41.40;;;;;;5075303;28;20051;-58
2022/08/15 05:18:08;;;;;;;0.60;0.60;;;31.00;41.40;;;;;;5061557;28;20685;-59
2022/08/15 05:20:37;;;;;;;0.95;0.50;;;31.00;41.40;;;;;;5049415;28;20659;-59
2022/08/15 05:23:07;;;;;;;1.20;0.50;;;31.00;41.40;;;;;;5068184;28;20048;-57
2022/08/15 05:25:45;;;;;;;0.43;0.20;;;31.00;41.40;;;;;;5072404;28;20044;-58
2022/08/15 05:28:15;;;;;;;0.45;0.45;;;31.00;41.40;;;;;;5057966;28;20891;-59
2022/08/15 05:30:42;;;;;;;0.30;0.30;;;31.00;41.40;;;;;;5069777;28;20602;-59
2022/08/15 05:33:12;;;;;;;1.23;0.73;;;31.00;41.40;;;;;;5067998;28;20126;-60
2022/08/15 05:35:43;;;;;;;1.40;0.90;;;31.00;41.40;;;;;;5068451;28;20045;-59
2022/08/15 05:38:15;;;;;;;3.65;1.08;;;31.00;41.40;;;;;;5068333;28;20517;-59
2022/08/15 05:40:51;;;;;;;1.05;0.52;;;31.00;41.40;;;;;;5068311;28;20063;-59
2022/08/15 05:43:29;;;;;;;0.50;0.32;;;31.00;41.50;;;;;;5061735;28;20041;-56
2022/08/15 05:46:01;;;;;;;2.45;0.60;;;31.00;41.50;;;;;;5055717;28;20036;-57
2022/08/15 05:48:33;;;;;;;1.50;0.40;;;31.00;41.50;;;;;;5060582;28;20800;-59
2022/08/15 05:51:10;;;;;;;1.90;0.40;;;31.00;41.50;;;;;;5068506;28;20054;-59
2022/08/15 05:53:48;;;;;;;2.92;0.50;;;31.00;41.50;;;;;;5053950;28;20049;-59
2022/08/15 05:56:22;;;;;;;0.35;0.30;;;30.90;41.40;;;;;;5052214;28;20041;-57
2022/08/15 05:58:55;;;;;;;1.00;0.40;;;30.90;41.50;;;;;;5058006;28;20048;-55
2022/08/15 06:01:29;;;;;;;1.15;1.00;;;30.90;41.50;;;;;;5055186;28;20421;-57
2022/08/15 06:04:03;;;;;;;1.10;0.63;;;30.90;41.50;;;;;;5055218;28;20524;-54
2022/08/15 06:06:36;;;;;;;3.35;0.73;;;30.90;41.50;;;;;;5066980;28;20144;-57
2022/08/15 06:09:08;;;;;;;1.27;0.40;;;30.90;41.50;;;;;;5057641;28;20041;-58
2022/08/15 06:11:40;;;;;;;1.55;0.90;;;30.90;41.50;;;;;;5070337;28;20416;-56
2022/08/15 06:14:26;;;;;;;0.50;0.40;;;30.90;41.50;;;;;;5057552;28;20049;-55
2022/08/15 06:17:00;;;;;;;0.50;0.40;;;31.00;41.60;;;;;;5074102;28;20068;-57
2022/08/15 06:19:31;;;;;;;1.88;0.20;;;30.90;41.50;;;;;;5067308;28;20086;-58
2022/08/15 06:22:08;;;;;;;0.57;0.57;;;30.90;41.50;;;;;;5060706;28;20040;-57
2022/08/15 06:24:45;;;;;;;0.93;0.40;;;30.90;41.50;;;;;;5083978;28;20041;-58
2022/08/15 06:27:22;;;;;;;2.10;0.60;;;30.90;41.50;;;;;;5067518;28;20056;-58
2022/08/15 06:30:02;;;;;;;2.65;0.40;;;30.90;41.50;;;;;;5037299;28;20055;-57
2022/08/15 06:32:40;;;;;;;2.05;0.30;;;30.90;41.40;;;;;;5066813;28;20055;-56
2022/08/15 06:35:18;;;;;;;0.70;0.55;;;30.90;41.40;;;;;;5067337;28;20046;-58
2022/08/15 06:38:03;;;;;;;1.15;0.30;;;30.90;41.40;;;;;;5055015;28;20072;-57
2022/08/15 06:40:46;;;;;;;2.30;0.43;;;30.90;41.40;;;;;;5062432;28;20129;-57
2022/08/15 06:43:13;;;;;;;1.75;0.73;;;30.90;41.40;;;;;;5052947;28;20041;-57
2022/08/15 06:45:57;;;;;;;0.50;0.50;;;30.90;41.40;;;;;;5065545;28;20590;-56
2022/08/15 06:48:26;;;;;;;3.60;0.73;;;30.90;41.40;;;;;;5059824;28;20153;-57
2022/08/15 06:50:56;;;;;;;0.77;0.77;;;30.90;41.40;;;;;;5066658;28;20045;-59
2022/08/15 06:53:30;;;;;;;1.48;0.50;;;30.90;41.40;;;;;;5066992;28;20136;-58
2022/08/15 06:56:01;;;;;;;0.60;0.50;;;30.90;41.40;;;;;;5047884;28;20048;-58
2022/08/15 06:58:40;;;;;;;0.88;0.47;;;30.90;41.30;;;;;;5057284;28;20114;-57
2022/08/15 07:01:19;;;;;;;1.15;0.30;;;30.90;41.30;;;;;;5069600;28;20056;-56
2022/08/15 07:03:57;;;;;;;0.73;0.60;;;30.90;41.30;;;;;;5050849;28;20079;-54
2022/08/15 07:06:38;;;;;;;0.98;0.30;;;30.90;41.30;;;;;;5074629;28;20044;-58
2022/08/15 07:09:24;;;;;;;1.07;0.83;;;30.90;41.30;;;;;;5060600;28;20477;-58
2022/08/15 07:12:02;;;;;;;0.43;0.30;;;30.90;41.30;;;;;;5038880;28;20295;-57
2022/08/15 07:14:44;;;;;;;0.57;0.47;;;30.90;41.30;;;;;;5066169;28;20044;-59
2022/08/15 07:17:19;;;;;;;1.73;0.22;;;30.90;41.20;;;;;;5078386;28;20041;-59
2022/08/15 07:19:52;;;;;;;0.77;0.28;;;30.90;41.20;;;;;;5060382;28;20047;-59
2022/08/15 07:22:30;;;;;;;1.73;0.65;;;30.90;41.20;;;;;;5078014;28;20109;-58
2022/08/15 07:24:59;;;;;;;0.40;0.40;;;30.90;41.20;;;;;;5052124;28;20041;-60
2022/08/15 07:27:29;;;;;;;0.63;0.30;;;30.90;41.20;;;;;;5047304;28;20095;-59
2022/08/15 07:30:00;;;;;;;1.85;0.63;;;30.90;41.20;;;;;;5061205;28;20535;-59
2022/08/15 07:32:36;;;;;;;2.22;1.08;;;31.00;41.20;;;;;;5034876;28;20080;-58
2022/08/15 07:35:16;;;;;;;1.00;0.60;;;30.90;41.10;;;;;;5050555;28;20036;-59
2022/08/15 07:37:56;;;;;;;1.25;0.73;;;31.00;41.20;;;;;;5049978;28;20047;-58
2022/08/15 07:40:28;;;;;;;1.05;0.55;;;31.00;41.20;;;;;;5060125;28;20420;-57
2022/08/15 07:42:56;;;;;;;3.05;0.38;;;31.00;41.20;;;;;;5059741;28;20044;-57
2022/08/15 07:45:30;;;;;;;0.70;0.60;;;31.00;41.20;;;;;;5066158;28;20106;-57
2022/08/15 07:48:05;;;;;;;1.38;0.40;;;31.00;41.10;;;;;;5047354;28;20037;-59
2022/08/15 07:50:39;;;;;;;0.60;0.20;;;31.00;41.10;;;;;;5052912;28;20118;-59
2022/08/15 07:53:14;;;;;;;0.40;0.30;;;31.00;41.10;;;;;;5066035;28;20071;-55
2022/08/15 07:56:04;;;;;;;1.17;0.85;;;31.00;41.10;;;;;;5065777;28;20064;-58
2022/08/15 07:58:34;;;;;;;0.90;0.30;;;31.00;41.10;;;;;;5066905;28;20587;-58
2022/08/15 08:01:12;;;;;;;0.90;0.50;;;31.00;41.10;;;;;;5047412;28;20119;-58
2022/08/15 08:03:43;;;;;;;1.80;0.20;;;31.10;41.10;;;;;;5067176;28;20048;-58
2022/08/15 08:06:22;;;;;;;2.72;0.30;;;31.00;41.10;;;;;;5058746;28;20124;-58
2022/08/15 08:08:55;;;;;;;1.20;0.60;;;31.10;41.10;;;;;;5065374;28;20245;-56
2022/08/15 08:11:36;;;;;;;1.50;0.40;;;31.10;41.10;;;;;;5077729;28;20075;-58
2022/08/15 08:14:13;;;;;;;2.17;0.38;;;31.10;41.00;;;;;;5048653;28;20076;-59
2022/08/15 08:16:48;;;;;;;0.60;0.20;;;31.10;41.10;;;;;;5050265;28;20505;-58
2022/08/15 08:19:25;;;;;;;1.40;0.30;;;31.10;41.00;;;;;;5057247;28;20055;-55
2022/08/15 08:22:02;;;;;;;1.35;0.40;;;31.10;41.00;;;;;;5065964;28;20384;-56
2022/08/15 08:24:53;;;;;;;1.70;0.80;;;31.10;41.00;;;;;;5080129;28;20040;-56
2022/08/15 08:27:32;;;;;;;1.20;0.32;;;31.10;40.90;;;;;;5073282;28;20477;-58
2022/08/15 08:30:05;;;;;;;0.88;0.40;;;31.10;41.00;;;;;;5072198;28;20040;-58
2022/08/15 08:32:45;;;;;;;0.20;0.20;;;31.10;41.00;;;;;;5085238;28;20050;-59
2022/08/15 08:35:21;;;;;;;0.40;0.40;;;31.10;40.90;;;;;;5082225;28;20131;-59
2022/08/15 08:37:57;;;;;;;0.25;0.20;;;31.10;40.90;;;;;;5077489;28;20036;-55
2022/08/15 08:43:28;;;;;;;1.75;0.77;;;31.10;40.90;;;;;;5083379;28;20516;-58
2022/08/15 08:46:01;;;;;;;0.50;0.20;;;31.10;40.90;;;;;;5071161;28;20035;-58
2022/08/15 08:48:42;;;;;;;0.75;0.20;;;31.10;40.90;;;;;;5072010;28;20454;-58
2022/08/15 08:51:21;;;;;;;0.60;0.55;;;31.10;40.90;;;;;;5071041;28;20040;-57
2022/08/15 08:53:56;;;;;;;0.57;0.30;;;31.10;40.90;;;;;;5082009;28;20044;-58
2022/08/15 08:56:30;;;;;;;3.05;0.63;;;31.10;40.90;;;;;;5070993;28;20044;-58
2022/08/15 08:59:09;;;;;;;0.55;0.50;;;31.20;41.00;;;;;;5060873;28;20124;-58
2022/08/15 09:01:38;;;;;;;2.45;0.60;;;31.10;40.90;;;;;;5086562;28;20581;-56
2022/08/15 09:04:10;;;;;;;3.05;0.20;;;31.20;41.00;;;;;;5086278;28;20051;-59
2022/08/15 09:06:41;;;;;;;1.05;0.45;;;31.20;40.90;;;;;;5073862;28;20135;-58
2022/08/15 09:09:11;;;;;;;0.82;0.28;;;31.20;40.90;;;;;;5086956;28;20043;-59
2022/08/15 09:11:43;;;;;;;2.88;0.20;;;31.20;40.90;;;;;;5086102;28;20171;-58
2022/08/15 09:14:21;;;;;;;1.02;0.40;;;31.20;40.90;;;;;;5078694;28;20044;-58
2022/08/15 09:16:51;;;;;;;0.75;0.30;;;31.20;40.90;;;;;;5073405;28;20048;-59
2022/08/15 09:19:23;;;;;;;0.77;0.40;;;31.30;41.00;;;;;;5074563;28;20045;-60
2022/08/15 09:21:52;;;;;;;0.60;0.60;;;31.20;40.90;;;;;;5082089;28;20453;-58
2022/08/15 09:24:21;;;;;;;0.93;0.45;;;31.20;40.90;;;;;;5081567;28;20131;-58
2022/08/15 09:27:02;;;;;;;1.75;0.30;;;31.30;41.00;;;;;;5070705;28;20590;-59
2022/08/15 09:29:32;;;;;;;1.20;0.20;;;31.30;40.90;;;;;;5070554;28;20070;-58
2022/08/15 09:32:28;;;;;;;0.52;0.20;;;31.30;40.90;;;;;;5072982;28;20596;-58
2022/08/15 09:35:20;;;;;;;0.40;0.40;;;31.40;41.00;;;;;;5066945;28;20052;-57
2022/08/15 09:38:26;;;;;;;2.63;1.02;;;31.40;40.90;;;;;;5089781;28;20059;-58
2022/08/15 09:41:20;;;;;;;0.85;0.32;;;31.40;40.90;;;;;;5079455;28;20469;-57
2022/08/15 09:44:09;;;;;;;0.50;0.40;;;31.30;40.90;;;;;;5090056;28;20058;-57
2022/08/15 09:47:01;;;;;;;0.38;0.28;;;31.40;41.00;;;;;;5089792;28;20040;-59
2022/08/15 09:50:00;;;;;;;2.35;0.68;;;31.30;40.90;;;;;;5089884;28;20036;-59
2022/08/15 09:52:38;;;;;;;0.20;0.10;;;31.30;40.90;;;;;;5081236;28;20044;-59
2022/08/15 09:55:20;;;;;;;1.13;0.20;;;31.30;41.00;;;;;;5089187;28;20059;-58
2022/08/15 09:57:50;;;;;;;0.30;0.22;;;31.40;41.00;;;;;;5070201;28;20036;-59
2022/08/15 10:00:24;;;;;;;0.40;0.30;;;31.40;41.00;;;;;;5065241;28;20121;-59
2022/08/15 10:02:59;;;;;;;1.58;1.38;;;31.40;40.90;;;;;;5076638;28;20045;-57
2022/08/15 10:05:40;;;;;;;0.60;0.20;;;31.40;40.90;;;;;;5070144;28;20459;-58
2022/08/15 10:08:13;;;;;;;0.20;0.15;;;31.40;40.90;;;;;;5086100;28;20051;-58
2022/08/15 10:10:52;;;;;;;0.10;0.10;;;31.40;40.90;;;;;;5072840;28;20055;-57
2022/08/15 10:13:47;;;;;;;3.22;0.20;;;31.50;41.00;;;;;;5082807;28;20068;-58
2022/08/15 10:16:48;;;;;;;1.75;0.10;;;31.50;40.80;;;;;;5085362;28;20055;-59
2022/08/15 10:19:35;;;;;;;1.65;0.10;;;31.50;40.80;;;;;;5069783;28;20094;-60
2022/08/15 10:22:24;;;;;;;0.38;0.30;;;31.50;40.80;;;;;;5088960;28;20078;-59
2022/08/15 10:25:25;;;;;;;0.73;0.17;;;31.50;40.90;;;;;;5072595;28;20102;-58
2022/08/15 10:27:59;;;;;;;1.83;0.40;;;31.50;40.80;;;;;;5080749;28;20044;-58
2022/08/15 10:30:31;;;;;;;0.17;0.10;;;31.50;40.80;;;;;;5086236;28;20048;-59
2022/08/15 10:33:00;;;;;;;2.78;0.10;;;31.50;40.80;;;;;;5055478;28;20119;-59
2022/08/15 10:35:37;;;;;;;1.02;0.10;;;31.50;40.80;;;;;;5069663;28;20127;-59
2022/08/15 10:38:09;;;;;;;0.40;0.40;;;31.50;40.80;;;;;;5081043;28;20463;-58
2022/08/15 10:40:44;;;;;;;0.17;0.10;;;31.50;40.80;;;;;;5076521;28;20120;-58
2022/08/15 10:43:23;;;;;;;0.15;0.10;;;31.50;40.70;;;;;;5081399;28;20483;-59
2022/08/15 10:45:59;;;;;;;0.50;0.10;;;31.50;40.80;;;;;;5087914;28;20043;-59
2022/08/15 10:48:44;;;;;;;0.30;0.20;;;31.50;40.70;;;;;;5088902;28;20051;-57
2022/08/15 10:51:28;;;;;;;0.52;0.10;;;31.50;40.70;;;;;;5084535;28;20050;-55
2022/08/15 10:54:12;;;;;;;0.40;0.10;;;31.50;40.70;;;;;;5073791;28;20468;-55
2022/08/15 10:56:41;;;;;;;0.00;0.00;;;31.50;40.80;;;;;;5078679;28;20035;-54
2022/08/15 10:59:13;;;;;;;0.10;0.10;;;31.50;40.80;;;;;;5070559;28;20037;-53
2022/08/15 11:01:43;;;;;;;0.10;0.10;;;31.50;40.80;;;;;;5088302;28;20051;-55
2022/08/15 11:04:23;;;;;;;0.30;0.10;;;31.50;40.80;;;;;;5087646;28;20082;-56
2022/08/15 11:06:52;;;;;;;0.20;0.20;;;31.50;40.80;;;;;;5091223;28;20093;-56
2022/08/15 11:09:22;;;;;;;1.17;0.10;;;31.50;40.90;;;;;;5081163;28;20093;-58
2022/08/15 11:12:04;;;;;;;0.95;0.10;;;31.50;40.80;;;;;;5075626;28;20044;-58
2022/08/15 11:14:39;;;;;;;0.20;0.10;;;31.50;40.80;;;;;;5083106;28;20124;-59
2022/08/15 11:17:18;;;;;;;0.20;0.10;;;31.50;40.80;;;;;;5088263;28;20591;-59
2022/08/15 11:19:49;;;;;;;0.10;0.10;;;31.50;40.80;;;;;;5082318;28;20044;-54
2022/08/15 11:22:29;;;;;;;0.10;0.10;;;31.50;40.90;;;;;;5069818;28;20055;-56
2022/08/15 11:25:00;;;;;;;0.30;0.10;;;31.50;40.80;;;;;;5088730;28;20052;-53
2022/08/15 11:27:29;;;;;;;0.35;0.35;;;31.50;41.50;;;;;;5069396;28;20109;-53
2022/08/15 11:29:58;;;;;;;0.10;0.10;;;31.50;40.90;;;;;;5075145;28;20039;-55
2022/08/15 11:32:28;;;;;;;0.28;0.10;;;31.50;40.90;;;;;;5071234;28;20056;-57
2022/08/15 11:34:56;;;;;;;0.10;0.10;;;31.50;40.90;;;;;;5074010;28;20099;-57
2022/08/15 11:37:27;;;;;;;0.10;0.10;;;31.60;40.90;;;;;;5052989;28;20052;-55
2022/08/15 11:40:00;;;;;;;1.65;0.10;;;31.50;40.80;;;;;;5062642;28;20143;-56
2022/08/15 11:42:30;;;;;;;0.30;0.10;;;31.50;40.80;;;;;;5077908;28;20036;-58
2022/08/15 11:44:59;;;;;;;0.15;0.13;;;31.50;40.80;;;;;;5086798;28;20040;-57
2022/08/15 11:47:31;;;;;;;0.10;0.10;;;31.60;40.90;;;;;;5086285;28;20048;-56
2022/08/15 11:50:02;;;;;;;1.45;0.10;;;31.60;40.90;;;;;;5062809;28;20055;-58
2022/08/15 11:52:33;;;;;;;0.10;0.10;;;31.60;40.90;;;;;;5068181;28;20057;-58
2022/08/15 11:55:15;;;;;;;0.10;0.10;;;31.60;40.90;;;;;;5086951;28;20217;-57
2022/08/15 11:57:44;;;;;;;0.10;0.10;;;31.60;40.80;;;;;;5069344;28;20067;-58
2022/08/15 12:00:16;;;;;;;0.10;0.10;;;31.50;40.80;;;;;;5075763;28;20098;-58
2022/08/15 12:02:44;;;;;;;0.15;0.10;;;31.60;40.80;;;;;;5080964;28;20543;-55
2022/08/15 12:05:14;;;;;;;0.10;0.10;;;31.60;40.80;;;;;;5067430;28;20036;-57
2022/08/15 12:07:46;;;;;;;0.10;0.10;;;31.60;40.80;;;;;;5073645;28;20118;-58
2022/08/15 12:10:29;;;;;;;0.10;0.10;;;31.60;40.80;;;;;;5086847;28;20117;-57
2022/08/15 12:12:57;;;;;;;0.10;0.10;;;31.70;40.80;;;;;;5087228;28;20508;-57
2022/08/15 12:15:38;;;;;;;0.10;0.10;;;31.70;40.80;;;;;;5087272;28;20115;-57
2022/08/15 12:18:10;;;;;;;0.10;0.10;;;31.70;40.80;;;;;;5087360;28;20782;-58
2022/08/15 12:20:44;;;;;;;0.20;0.10;;;31.70;40.80;;;;;;5048914;28;20060;-59
2022/08/15 12:23:36;;;;;;;0.10;0.10;;;31.70;40.80;;;;;;5085070;28;20055;-58
2022/08/15 12:26:06;;;;;;;0.30;0.10;;;31.70;40.70;;;;;;5086904;28;20144;-57
2022/08/15 12:28:35;;;;;;;0.50;0.10;;;31.70;40.70;;;;;;5087051;28;20068;-59
2022/08/15 12:31:06;;;;;;;0.73;0.10;;;31.70;40.70;;;;;;5080018;28;20048;-59
2022/08/15 12:33:33;;;;;;;0.10;0.10;;;31.70;40.70;;;;;;5078438;28;20130;-59
2022/08/15 12:36:02;;;;;;;0.75;0.10;;;31.70;40.70;;;;;;5068859;28;20052;-58
2022/08/15 12:38:29;;;;;;;0.15;0.10;;;31.70;40.70;;;;;;5086912;28;20466;-58
2022/08/15 12:40:58;;;;;;;0.10;0.10;;;31.70;40.70;;;;;;5086732;28;20051;-57
2022/08/15 12:43:25;;;;;;;0.10;0.10;;;31.80;40.70;;;;;;5062253;28;20053;-58
2022/08/15 12:45:52;;;;;;;0.10;0.10;;;31.70;40.70;;;;;;5067488;28;20520;-58
2022/08/15 12:48:23;;;;;;;0.20;0.10;;;31.80;40.70;;;;;;5075360;28;20052;-59
2022/08/15 12:50:50;;;;;;;0.20;0.20;;;31.70;40.60;;;;;;5080061;28;20060;-59
2022/08/15 12:53:18;;;;;;;0.20;0.10;;;31.80;41.30;;;;;;5086714;28;20449;-57
2022/08/15 12:55:47;;;;;;;0.85;0.85;;;31.80;40.60;;;;;;5073671;28;20068;-58
2022/08/15 12:58:18;;;;;;;0.10;0.10;;;31.80;40.60;;;;;;5092278;28;20035;-58
2022/08/15 13:00:53;;;;;;;0.10;0.00;;;31.90;40.70;;;;;;5086735;28;20052;-59
2022/08/15 13:03:23;;;;;;;0.20;0.00;;;31.90;40.70;;;;;;5086809;28;20040;-58
2022/08/15 13:05:55;;;;;;;0.10;0.10;;;31.90;40.70;;;;;;5088023;28;20079;-59
2022/08/15 13:08:22;;;;;;;0.10;0.10;;;31.90;40.70;;;;;;5090502;28;20044;-58
2022/08/15 13:10:50;;;;;;;0.00;0.00;;;31.90;40.60;;;;;;5090448;28;20056;-57
2022/08/15 13:13:18;;;;;;;0.10;0.10;;;31.90;40.60;;;;;;5090741;28;20048;-58
2022/08/15 13:15:45;;;;;;;0.10;0.10;;;31.90;40.60;;;;;;5090420;28;20131;-58
2022/08/15 13:18:17;;;;;;;0.20;0.10;;;31.90;40.60;;;;;;5079800;28;20465;-58
2022/08/15 13:23:41;;;;;;;0.10;0.10;;;31.90;40.50;;;;;;5083787;28;20036;-59
2022/08/15 13:26:12;;;;;;;0.10;0.10;;;31.90;40.50;;;;;;5090165;28;20048;-59